Terminal Aerodrome Forecast
Issued by NWS

Home | Current Version | Previous Version | Text Only | Print | Product List | Glossary On
Versions: 1 2 3 4 5 6 7 8 9 10 11 12 13 14 15 16 17 18
000
FTUS41 KPBZ 100338 AAA
TAFAGC
TAF AMD
KAGC 100338Z 1004/1024 27009KT P6SM BKN015
     FM101400 25008KT P6SM BKN035
     FM102100 25006KT P6SM SCT050=

USA.gov is the U.S. government's official web portal to all federal, state and local government web resources and services.